createdAt,value
2017-11-07T00:01:05.573Z,83.20
2017-11-07T00:03:33.009Z,83.00
2017-11-07T00:06:01.195Z,83.10
2017-11-07T00:08:28.629Z,83.00
2017-11-07T00:10:56.817Z,83.10
2017-11-07T00:13:24.245Z,83.00
2017-11-07T00:15:51.684Z,82.90
2017-11-07T00:18:19.112Z,82.90
2017-11-07T00:20:46.585Z,82.90
2017-11-07T00:23:14.028Z,82.90
2017-11-07T00:25:41.446Z,82.90
2017-11-07T00:28:09.641Z,83.10
2017-11-07T00:30:37.081Z,83.00
2017-11-07T00:33:05.265Z,83.10
2017-11-07T00:35:32.689Z,83.10
2017-11-07T00:38:00.125Z,83.10
2017-11-07T00:40:27.565Z,83.20
2017-11-07T00:42:55.025Z,83.20
2017-11-07T00:45:22.481Z,83.10
2017-11-07T00:47:49.934Z,83.10
2017-11-07T00:50:17.337Z,83.00
2017-11-07T00:52:44.766Z,83.10
2017-11-07T00:55:12.199Z,83.30
2017-11-07T00:57:39.621Z,83.10
2017-11-07T01:00:07.826Z,83.10
2017-11-07T01:02:35.298Z,83.10
2017-11-07T01:05:02.753Z,83.20
2017-11-07T01:07:30.190Z,83.20
2017-11-07T01:09:57.649Z,83.20
2017-11-07T01:12:25.069Z,83.20
2017-11-07T01:14:52.513Z,83.20
2017-11-07T01:17:20.037Z,83.20
2017-11-07T01:19:47.493Z,83.30
2017-11-07T01:22:14.930Z,83.30
2017-11-07T01:24:42.357Z,83.30
2017-11-07T01:27:09.785Z,83.30
2017-11-07T01:29:37.327Z,83.20
2017-11-07T01:32:04.745Z,83.20
2017-11-07T01:34:32.938Z,83.30
2017-11-07T01:37:00.370Z,83.30
2017-11-07T01:39:28.565Z,83.30
2017-11-07T01:41:55.986Z,83.40
2017-11-07T01:44:23.416Z,83.50
2017-11-07T01:46:50.845Z,83.50
2017-11-07T01:49:18.313Z,83.50
2017-11-07T01:51:45.765Z,83.50
2017-11-07T01:54:13.231Z,83.60
2017-11-07T01:56:40.685Z,83.50
2017-11-07T01:59:08.123Z,83.50
2017-11-07T02:01:35.545Z,83.50
2017-11-07T02:04:03.773Z,83.50
2017-11-07T02:06:31.232Z,83.50
2017-11-07T02:08:58.685Z,83.60
2017-11-07T02:11:26.145Z,83.70
2017-11-07T02:13:53.586Z,83.80
2017-11-07T02:16:21.065Z,83.80
2017-11-07T02:18:48.513Z,83.90
2017-11-07T02:21:15.973Z,84.70
2017-11-07T02:23:43.430Z,84.00
2017-11-07T02:26:10.871Z,84.00
2017-11-07T02:28:38.320Z,84.10
2017-11-07T02:31:05.752Z,84.20
2017-11-07T02:33:33.957Z,84.30
2017-11-07T02:36:01.437Z,84.20
2017-11-07T02:38:28.885Z,84.30
2017-11-07T02:40:56.305Z,84.30
2017-11-07T02:43:24.614Z,84.40
2017-11-07T02:45:52.082Z,84.40
2017-11-07T02:48:19.534Z,84.50
2017-11-07T02:50:46.997Z,84.60
2017-11-07T02:53:14.429Z,84.60
2017-11-07T02:55:41.867Z,84.70
2017-11-07T02:58:10.077Z,84.80
2017-11-07T03:00:37.523Z,84.80
2017-11-07T03:03:04.961Z,84.90
2017-11-07T03:05:33.277Z,84.80
2017-11-07T03:08:00.712Z,84.80
2017-11-07T03:10:28.189Z,84.90
2017-11-07T03:12:55.639Z,84.80
2017-11-07T03:15:23.069Z,84.80
2017-11-07T03:17:50.560Z,84.80
2017-11-07T03:20:18.005Z,84.80
2017-11-07T03:22:45.433Z,84.80
2017-11-07T03:25:13.644Z,84.70
2017-11-07T03:27:41.087Z,84.70
2017-11-07T03:30:08.562Z,84.60
2017-11-07T03:32:36.001Z,84.60
2017-11-07T03:35:03.429Z,84.50
2017-11-07T03:37:31.621Z,84.40
2017-11-07T03:39:59.045Z,84.40
2017-11-07T03:42:26.561Z,84.40
2017-11-07T03:44:53.997Z,84.30
2017-11-07T03:47:21.481Z,84.20
2017-11-07T03:49:48.925Z,84.10
2017-11-07T03:52:16.358Z,84.10
2017-11-07T03:54:44.569Z,84.00
2017-11-07T03:57:12.014Z,84.00
2017-11-07T03:59:39.433Z,83.90
2017-11-07T04:02:07.633Z,83.90
2017-11-07T04:04:35.076Z,83.90
2017-11-07T04:07:03.290Z,83.90
2017-11-07T04:09:30.713Z,83.90
2017-11-07T04:11:58.153Z,83.90
2017-11-07T04:14:26.382Z,83.90
2017-11-07T04:16:53.804Z,83.90
2017-11-07T04:19:21.290Z,83.90
2017-11-07T04:21:48.730Z,83.80
2017-11-07T04:24:16.208Z,83.80
2017-11-07T04:26:43.660Z,83.80
2017-11-07T04:29:11.093Z,83.80
2017-11-07T04:31:38.519Z,83.90
2017-11-07T04:34:05.953Z,83.80
2017-11-07T04:36:33.489Z,83.80
2017-11-07T04:39:00.951Z,83.90
2017-11-07T04:41:28.408Z,84.60
2017-11-07T04:43:55.856Z,84.00
2017-11-07T04:46:23.257Z,84.10
2017-11-07T04:48:51.601Z,84.10
2017-11-07T04:51:19.049Z,84.30
2017-11-07T04:53:46.513Z,84.30
2017-11-07T04:56:13.956Z,84.40
2017-11-07T04:58:41.489Z,84.50
2017-11-07T05:01:08.930Z,84.60
2017-11-07T05:03:36.405Z,84.70
2017-11-07T05:06:03.861Z,84.80
2017-11-07T05:08:31.286Z,85.00
2017-11-07T05:10:59.489Z,85.60
2017-11-07T05:13:26.921Z,84.90
2017-11-07T05:15:54.345Z,84.90
2017-11-07T05:18:21.871Z,84.80
2017-11-07T05:20:49.312Z,84.80
2017-11-07T05:23:16.778Z,85.00
2017-11-07T05:25:44.221Z,85.00
2017-11-07T05:28:11.653Z,85.00
2017-11-07T05:30:39.877Z,84.80
2017-11-07T05:33:07.334Z,84.80
2017-11-07T05:35:34.781Z,84.70
2017-11-07T05:38:02.245Z,84.80
2017-11-07T05:40:29.693Z,84.90
2017-11-07T05:42:57.157Z,85.00
2017-11-07T05:45:24.605Z,85.20
2017-11-07T05:47:52.024Z,85.30
2017-11-07T05:50:20.237Z,85.30
2017-11-07T05:52:47.695Z,85.20
2017-11-07T05:55:15.153Z,85.20
2017-11-07T05:57:42.613Z,85.10
2017-11-07T06:00:10.046Z,84.90
2017-11-07T06:02:37.532Z,84.90
2017-11-07T06:05:04.961Z,84.80
2017-11-07T06:07:32.441Z,84.70
2017-11-07T06:09:59.893Z,84.60
2017-11-07T06:12:27.382Z,84.60
2017-11-07T06:14:54.814Z,84.60
2017-11-07T06:17:22.252Z,84.50
2017-11-07T06:19:49.685Z,84.50
2017-11-07T06:22:17.901Z,84.50
2017-11-07T06:24:45.354Z,84.50
2017-11-07T06:27:12.790Z,84.60
2017-11-07T06:29:40.371Z,84.70
2017-11-07T06:32:07.788Z,84.60
2017-11-07T06:34:35.980Z,84.50
2017-11-07T06:37:03.467Z,84.50
2017-11-07T06:39:30.924Z,84.40
2017-11-07T06:41:58.360Z,84.40
2017-11-07T06:44:25.798Z,84.40
2017-11-07T06:46:54.005Z,84.70
2017-11-07T06:49:21.476Z,84.60
2017-11-07T06:51:48.922Z,84.70
2017-11-07T06:54:16.397Z,84.80
2017-11-07T06:56:43.833Z,85.50
2017-11-07T06:59:11.261Z,84.70
2017-11-07T07:01:39.469Z,84.60
2017-11-07T07:04:06.902Z,84.60
2017-11-07T07:06:34.330Z,84.40
2017-11-07T07:09:01.840Z,84.40
2017-11-07T07:11:29.274Z,84.50
2017-11-07T07:13:56.757Z,84.40
2017-11-07T07:16:24.197Z,84.40
2017-11-07T07:18:51.681Z,84.40
2017-11-07T07:21:19.104Z,84.40
2017-11-07T07:23:46.547Z,84.40
2017-11-07T07:26:14.737Z,84.40
2017-11-07T07:28:42.229Z,84.30
2017-11-07T07:31:09.683Z,84.40
2017-11-07T07:33:37.150Z,84.40
2017-11-07T07:36:04.585Z,84.40
2017-11-07T07:38:32.054Z,84.50
2017-11-07T07:40:59.501Z,84.50
2017-11-07T07:43:26.957Z,84.50
2017-11-07T07:45:54.394Z,84.50
2017-11-07T07:48:21.874Z,84.60
2017-11-07T07:50:49.305Z,84.70
2017-11-07T07:53:16.746Z,84.60
2017-11-07T07:55:44.965Z,84.80
2017-11-07T07:58:12.423Z,84.70
2017-11-07T08:00:39.868Z,84.80
2017-11-07T08:03:07.345Z,84.80
2017-11-07T08:05:34.798Z,85.00
2017-11-07T08:08:02.244Z,84.90
2017-11-07T08:10:29.677Z,84.90
2017-11-07T08:12:57.510Z,85.00
2017-11-07T08:15:24.930Z,85.00
2017-11-07T08:17:52.358Z,85.00
2017-11-07T08:20:19.840Z,84.90
2017-11-07T08:22:47.297Z,85.00
2017-11-07T08:25:14.730Z,85.00
2017-11-07T08:27:42.161Z,84.90
2017-11-07T08:30:10.385Z,84.90
2017-11-07T08:32:37.856Z,84.90
2017-11-07T08:35:05.294Z,85.60
2017-11-07T08:37:32.730Z,85.00
2017-11-07T08:40:00.218Z,84.80
2017-11-07T08:42:27.645Z,84.90
2017-11-07T08:44:55.084Z,84.90
2017-11-07T08:47:23.285Z,85.20
2017-11-07T08:49:50.717Z,85.10
2017-11-07T08:52:18.933Z,85.30
2017-11-07T08:54:46.393Z,85.30
2017-11-07T08:57:13.849Z,85.30
2017-11-07T08:59:41.295Z,85.30
2017-11-07T09:02:08.805Z,85.40
2017-11-07T09:04:36.321Z,85.40
2017-11-07T09:07:03.773Z,85.50
2017-11-07T09:09:31.249Z,85.50
2017-11-07T09:11:58.681Z,85.50
2017-11-07T09:14:26.126Z,85.60
2017-11-07T09:16:53.563Z,85.70
2017-11-07T09:19:21.786Z,85.60
2017-11-07T09:21:49.232Z,85.60
2017-11-07T09:24:16.666Z,85.60
2017-11-07T09:26:44.314Z,85.40
2017-11-07T09:29:11.793Z,85.40
2017-11-07T09:31:39.223Z,85.40
2017-11-07T09:34:06.734Z,85.40
2017-11-07T09:36:34.197Z,85.40
2017-11-07T09:39:01.625Z,85.40
2017-11-07T09:41:29.111Z,85.40
2017-11-07T09:43:56.551Z,85.50
2017-11-07T09:46:23.982Z,85.50
2017-11-07T09:48:52.194Z,85.40
2017-11-07T09:51:19.639Z,85.40
2017-11-07T09:53:47.101Z,85.30
2017-11-07T09:56:14.546Z,85.40
2017-11-07T09:58:41.984Z,85.30
2017-11-07T10:01:10.173Z,85.10
2017-11-07T10:03:37.697Z,85.10
2017-11-07T10:06:05.149Z,85.10
2017-11-07T10:08:32.669Z,85.20
2017-11-07T10:11:00.101Z,85.10
2017-11-07T10:13:27.582Z,85.00
2017-11-07T10:15:55.036Z,85.10
2017-11-07T10:18:22.473Z,85.10
2017-11-07T10:20:49.963Z,85.20
2017-11-07T10:23:18.249Z,85.30
2017-11-07T10:25:45.687Z,85.20
2017-11-07T10:28:13.135Z,85.20
2017-11-07T10:30:40.565Z,85.20
2017-11-07T10:33:08.773Z,85.20
2017-11-07T10:35:36.223Z,85.20
2017-11-07T10:38:03.649Z,85.20
2017-11-07T10:40:31.856Z,85.20
2017-11-07T10:42:59.321Z,85.20
2017-11-07T10:45:26.781Z,85.10
2017-11-07T10:47:54.232Z,84.90
2017-11-07T10:50:21.669Z,84.80
2017-11-07T10:52:49.099Z,84.70
2017-11-07T10:55:17.298Z,84.40
2017-11-07T10:57:44.737Z,84.30
2017-11-07T11:00:12.933Z,84.30
2017-11-07T11:02:40.364Z,84.30
2017-11-07T11:05:08.581Z,84.30
2017-11-07T11:07:36.812Z,84.30
2017-11-07T11:10:04.267Z,84.10
2017-11-07T11:12:31.689Z,84.10
2017-11-07T11:14:59.913Z,83.50
2017-11-07T11:17:27.361Z,83.50
2017-11-07T11:19:54.808Z,83.30
2017-11-07T11:22:22.274Z,83.00
2017-11-07T11:24:49.730Z,82.90
2017-11-07T11:27:17.233Z,82.70
2017-11-07T11:29:44.646Z,82.30
2017-11-07T11:32:12.088Z,82.10
2017-11-07T11:34:39.522Z,81.90
2017-11-07T11:37:07.721Z,81.50
2017-11-07T11:39:35.153Z,81.50
2017-11-07T11:42:03.357Z,81.50
2017-11-07T11:44:30.828Z,81.40
2017-11-07T11:46:58.258Z,81.40
2017-11-07T11:49:25.706Z,81.30
2017-11-07T11:51:53.137Z,81.00
2017-11-07T11:54:21.333Z,80.90
2017-11-07T11:56:48.830Z,80.90
2017-11-07T11:59:16.263Z,80.70
2017-11-07T12:01:43.745Z,80.70
2017-11-07T12:04:11.190Z,80.50
2017-11-07T12:06:38.625Z,80.20
2017-11-07T12:09:06.113Z,80.00
2017-11-07T12:11:33.561Z,79.70
2017-11-07T12:14:01.025Z,79.40
2017-11-07T12:16:28.465Z,79.30
2017-11-07T12:18:55.901Z,79.10
2017-11-07T12:21:24.115Z,78.70
2017-11-07T12:23:51.588Z,78.60
2017-11-07T12:26:19.020Z,78.60
2017-11-07T12:28:46.454Z,78.20
2017-11-07T12:31:14.661Z,78.00
2017-11-07T12:33:42.112Z,77.90
2017-11-07T12:36:09.529Z,77.70
2017-11-07T12:38:37.793Z,77.30
2017-11-07T12:41:05.233Z,77.30
2017-11-07T12:43:32.788Z,77.30
2017-11-07T12:46:00.326Z,77.20
2017-11-07T12:48:27.784Z,77.10
2017-11-07T12:51:07.218Z,76.70
2017-11-07T12:53:34.669Z,76.40
2017-11-07T12:56:02.138Z,76.00
2017-11-07T12:58:29.565Z,75.30
2017-11-07T13:00:57.057Z,74.80
2017-11-07T13:03:24.510Z,74.80
2017-11-07T13:05:51.953Z,74.80
2017-11-07T13:08:19.425Z,74.80
2017-11-07T13:10:46.868Z,74.30
2017-11-07T13:13:14.302Z,73.90
2017-11-07T13:15:42.509Z,74.10
2017-11-07T13:18:09.945Z,74.10
2017-11-07T13:20:37.373Z,73.90
2017-11-07T13:23:05.590Z,74.00
2017-11-07T13:25:33.057Z,74.00
2017-11-07T13:28:00.489Z,74.10
2017-11-07T13:30:27.965Z,74.20
2017-11-07T13:32:55.425Z,74.50
2017-11-07T13:35:22.875Z,74.70
2017-11-07T13:37:50.338Z,74.90
2017-11-07T13:40:17.801Z,75.10
2017-11-07T13:42:45.246Z,75.30
2017-11-07T13:45:12.711Z,75.60
2017-11-07T13:47:40.137Z,75.80
2017-11-07T13:50:07.562Z,76.00
2017-11-07T13:52:35.087Z,76.20
2017-11-07T13:55:02.514Z,76.30
2017-11-07T13:57:29.947Z,76.70
2017-11-07T13:59:58.170Z,77.10
2017-11-07T14:02:25.603Z,77.10
2017-11-07T14:04:53.089Z,77.30
2017-11-07T14:07:20.543Z,77.50
2017-11-07T14:09:48.007Z,77.70
2017-11-07T14:12:15.438Z,77.90
2017-11-07T14:14:42.906Z,78.10
2017-11-07T14:17:10.375Z,78.10
2017-11-07T14:19:37.826Z,78.30
2017-11-07T14:22:05.277Z,78.30
2017-11-07T14:24:32.752Z,78.50
2017-11-07T14:27:00.203Z,78.50
2017-11-07T14:29:27.641Z,78.50
2017-11-07T14:31:55.108Z,78.50
2017-11-07T14:34:23.289Z,78.30
2017-11-07T14:36:50.731Z,78.30
2017-11-07T14:39:18.183Z,78.30
2017-11-07T14:41:45.633Z,78.30
2017-11-07T14:44:13.073Z,78.10
2017-11-07T14:46:41.261Z,78.00
2017-11-07T14:49:08.693Z,78.00
2017-11-07T14:51:36.917Z,78.10
2017-11-07T14:54:04.377Z,78.10
2017-11-07T14:56:31.837Z,78.10
2017-11-07T14:58:59.289Z,79.00
2017-11-07T15:01:26.790Z,78.10
2017-11-07T15:03:54.217Z,78.00
2017-11-07T15:06:21.659Z,78.00
2017-11-07T15:08:49.116Z,78.20
2017-11-07T15:11:16.573Z,78.20
2017-11-07T15:13:44.013Z,78.10
2017-11-07T15:16:11.440Z,78.20
2017-11-07T15:18:39.641Z,78.40
2017-11-07T15:21:07.082Z,78.30
2017-11-07T15:23:35.276Z,78.50
2017-11-07T15:26:02.704Z,78.50
2017-11-07T15:28:31.024Z,79.00
2017-11-07T15:30:58.505Z,78.90
2017-11-07T15:33:25.949Z,79.20
2017-11-07T15:35:53.392Z,79.50
2017-11-07T15:38:20.920Z,79.60
2017-11-07T15:40:49.225Z,80.00
2017-11-07T15:43:16.697Z,80.00
2017-11-07T15:45:44.166Z,80.10
2017-11-07T15:48:11.605Z,80.30
2017-11-07T15:50:39.037Z,80.40
2017-11-07T15:53:06.576Z,80.50
2017-11-07T15:55:34.818Z,80.90
2017-11-07T15:58:02.248Z,80.80
2017-11-07T16:00:29.716Z,81.00
2017-11-07T16:02:57.262Z,81.10
2017-11-07T16:05:24.729Z,81.30
2017-11-07T16:07:52.161Z,81.30
2017-11-07T16:10:19.653Z,81.50
2017-11-07T16:12:47.096Z,81.60
2017-11-07T16:15:14.567Z,81.80
2017-11-07T16:17:41.993Z,81.90
2017-11-07T16:20:09.550Z,81.90
2017-11-07T16:22:37.119Z,82.00
2017-11-07T16:25:04.613Z,82.20
2017-11-07T16:27:32.169Z,82.70
2017-11-07T16:29:59.824Z,82.90
2017-11-07T16:32:27.277Z,83.20
2017-11-07T16:34:54.846Z,83.30
2017-11-07T16:37:22.335Z,83.20
2017-11-07T16:39:49.869Z,83.40
2017-11-07T16:42:17.321Z,83.40
2017-11-07T16:44:44.765Z,83.30
2017-11-07T16:47:12.322Z,83.30
2017-11-07T16:49:39.977Z,83.20
2017-11-07T16:52:07.435Z,83.20
2017-11-07T16:54:34.857Z,83.10
2017-11-07T16:57:03.077Z,83.20
2017-11-07T16:59:30.627Z,83.20
2017-11-07T17:01:58.045Z,83.30
2017-11-07T17:04:26.257Z,83.40
2017-11-07T17:06:53.727Z,83.30
2017-11-07T17:09:21.171Z,83.30
2017-11-07T17:11:48.620Z,83.30
2017-11-07T17:14:16.045Z,83.50
2017-11-07T17:16:44.250Z,83.60
2017-11-07T17:19:11.693Z,84.40
2017-11-07T17:21:39.190Z,83.80
2017-11-07T17:24:06.613Z,83.80
2017-11-07T17:26:34.102Z,83.80
2017-11-07T17:29:01.554Z,83.80
2017-11-07T17:31:28.981Z,83.80
2017-11-07T17:33:56.430Z,83.80
2017-11-07T17:36:24.657Z,83.60
2017-11-07T17:38:52.097Z,83.50
2017-11-07T17:41:19.549Z,83.50
2017-11-07T17:43:46.986Z,83.40
2017-11-07T17:46:14.461Z,83.40
2017-11-07T17:48:41.934Z,83.50
2017-11-07T17:51:09.478Z,83.60
2017-11-07T17:53:36.885Z,83.60
2017-11-07T17:56:04.334Z,83.50
2017-11-07T17:58:31.777Z,83.50
2017-11-07T18:00:59.317Z,83.50
2017-11-07T18:03:26.762Z,83.50
2017-11-07T18:05:54.257Z,83.90
2017-11-07T18:08:21.689Z,84.40
2017-11-07T18:10:49.252Z,84.20
2017-11-07T18:13:16.701Z,84.20
2017-11-07T18:15:44.162Z,84.20
2017-11-07T18:18:11.618Z,84.20
2017-11-07T18:20:39.053Z,84.20
2017-11-07T18:23:06.529Z,84.10
2017-11-07T18:25:33.974Z,84.00
2017-11-07T18:28:01.454Z,84.00
2017-11-07T18:30:28.913Z,83.90
2017-11-07T18:32:56.362Z,83.90
2017-11-07T18:35:23.793Z,84.00
2017-11-07T18:37:51.230Z,83.90
2017-11-07T18:40:19.554Z,83.80
2017-11-07T18:42:47.006Z,83.80
2017-11-07T18:45:14.541Z,84.10
2017-11-07T18:47:42.041Z,84.50
2017-11-07T18:50:09.478Z,84.80
2017-11-07T18:52:36.941Z,85.10
2017-11-07T18:55:04.505Z,85.30
2017-11-07T18:57:31.961Z,85.40
2017-11-07T18:59:59.403Z,85.40
2017-11-07T19:02:26.857Z,85.40
2017-11-07T19:04:54.295Z,85.40
2017-11-07T19:07:22.501Z,85.60
2017-11-07T19:09:49.952Z,85.60
2017-11-07T19:12:20.201Z,85.70
2017-11-07T19:14:47.742Z,85.80
2017-11-07T19:17:15.205Z,85.90
2017-11-07T19:19:42.665Z,85.80
2017-11-07T19:22:10.106Z,85.90
2017-11-07T19:24:37.697Z,85.90
2017-11-07T19:27:05.229Z,86.00
2017-11-07T19:29:32.663Z,86.00
2017-11-07T19:32:00.165Z,86.10
2017-11-07T19:34:27.616Z,86.10
2017-11-07T19:36:55.053Z,86.10
2017-11-07T19:39:22.522Z,86.10
2017-11-07T19:41:49.957Z,86.10
2017-11-07T19:44:17.429Z,86.10
2017-11-07T19:46:44.887Z,86.10
2017-11-07T19:49:12.345Z,86.00
2017-11-07T19:51:39.811Z,86.10
2017-11-07T19:54:07.262Z,86.00
2017-11-07T19:56:34.695Z,86.00
2017-11-07T19:59:02.173Z,86.00
2017-11-07T20:01:29.634Z,85.90
2017-11-07T20:03:57.081Z,86.00
2017-11-07T20:06:24.504Z,86.20
2017-11-07T20:08:52.821Z,86.50
2017-11-07T20:11:20.278Z,86.40
2017-11-07T20:13:47.719Z,86.60
2017-11-07T20:16:15.154Z,86.60
2017-11-07T20:18:43.358Z,86.70
2017-11-07T20:21:10.786Z,86.70
2017-11-07T20:23:38.237Z,86.60
2017-11-07T20:26:06.430Z,86.80
2017-11-07T20:28:33.917Z,86.80
2017-11-07T20:31:01.370Z,86.80
2017-11-07T20:33:28.816Z,86.90
2017-11-07T20:35:56.273Z,86.90
2017-11-07T20:38:23.700Z,87.00
2017-11-07T20:40:51.906Z,87.20
2017-11-07T20:43:19.341Z,87.10
2017-11-07T20:45:46.785Z,87.20
2017-11-07T20:48:15.001Z,87.30
2017-11-07T20:50:42.458Z,87.20
2017-11-07T20:53:09.914Z,87.20
2017-11-07T20:55:37.351Z,87.20
2017-11-07T20:58:04.778Z,87.30
2017-11-07T21:00:32.994Z,87.40
2017-11-07T21:03:00.424Z,87.30
2017-11-07T21:05:28.625Z,87.50
2017-11-07T21:07:56.064Z,87.50
2017-11-07T21:10:23.507Z,87.50
2017-11-07T21:12:51.697Z,87.50
2017-11-07T21:15:19.182Z,87.50
2017-11-07T21:17:46.609Z,87.50
2017-11-07T21:20:14.045Z,87.50
2017-11-07T21:22:41.565Z,87.40
2017-11-07T21:25:09.003Z,87.60
2017-11-07T21:27:36.429Z,87.50
2017-11-07T21:30:04.749Z,87.50
2017-11-07T21:32:32.202Z,87.50
2017-11-07T21:34:59.633Z,87.50
2017-11-07T21:37:27.073Z,87.40
2017-11-07T21:39:55.384Z,87.50
2017-11-07T21:42:22.856Z,87.50
2017-11-07T21:44:50.296Z,87.50
2017-11-07T21:47:17.787Z,87.50
2017-11-07T21:49:45.313Z,87.50
2017-11-07T21:52:12.734Z,87.60
2017-11-07T21:54:40.926Z,87.60
2017-11-07T21:57:08.365Z,87.60
2017-11-07T21:59:36.590Z,87.70
2017-11-07T22:02:04.045Z,87.70
2017-11-07T22:04:31.476Z,87.60
2017-11-07T22:06:58.949Z,87.70
2017-11-07T22:09:26.360Z,88.40
2017-11-07T22:11:54.588Z,87.70
2017-11-07T22:14:22.034Z,87.70
2017-11-07T22:16:53.429Z,87.80
2017-11-07T22:19:20.870Z,87.70
2017-11-07T22:21:50.119Z,87.70
2017-11-07T22:24:18.318Z,87.70
2017-11-07T22:26:45.772Z,87.70
2017-11-07T22:29:13.202Z,87.80
2017-11-07T22:31:41.403Z,87.80
2017-11-07T22:34:08.833Z,87.80
2017-11-07T22:36:37.244Z,87.90
2017-11-07T22:39:04.651Z,87.80
2017-11-07T22:41:32.889Z,88.30
2017-11-07T22:44:00.450Z,87.80
2017-11-07T22:46:27.897Z,87.80
2017-11-07T22:48:55.353Z,87.70
2017-11-07T22:51:22.814Z,87.90
2017-11-07T22:53:50.265Z,87.80
2017-11-07T22:56:17.725Z,87.90
2017-11-07T22:58:45.177Z,87.90
2017-11-07T23:01:12.637Z,87.90
2017-11-07T23:03:40.190Z,87.90
2017-11-07T23:06:07.642Z,87.80
2017-11-07T23:08:35.070Z,87.70
2017-11-07T23:11:03.272Z,87.90
2017-11-07T23:13:30.747Z,87.90
2017-11-07T23:15:58.172Z,87.90
2017-11-07T23:18:25.605Z,87.80
2017-11-07T23:20:53.813Z,87.80
2017-11-07T23:23:21.241Z,87.70
2017-11-07T23:25:49.467Z,87.80
2017-11-07T23:28:16.919Z,87.80
2017-11-07T23:30:44.354Z,87.70
2017-11-07T23:33:11.793Z,87.60
2017-11-07T23:35:39.233Z,87.60
2017-11-07T23:38:07.441Z,87.70
2017-11-07T23:40:34.904Z,87.70
2017-11-07T23:43:02.338Z,87.80
2017-11-07T23:45:29.809Z,87.80
2017-11-07T23:47:57.282Z,87.70
2017-11-07T23:50:24.709Z,87.70
2017-11-07T23:52:53.108Z,87.70
2017-11-07T23:55:20.533Z,87.70
2017-11-07T23:57:48.021Z,87.70
